sensor_id;sensor_type;location;lat;lon;timestamp;P1;P2;P0
75946;PMS5003;64628;50.104;14.614;2024-01-30T00:01:50;108;88;
75946;PMS5003;64628;50.104;14.614;2024-01-30T00:04:14;96;79;
75946;PMS5003;64628;50.104;14.614;2024-01-30T00:06:40;79;64;
75946;PMS5003;64628;50.104;14.614;2024-01-30T00:09:05;92;71;
75946;PMS5003;64628;50.104;14.614;2024-01-30T00:11:31;91;67;
75946;PMS5003;64628;50.104;14.614;2024-01-30T00:13:57;91;66;
75946;PMS5003;64628;50.104;14.614;2024-01-30T00:16:22;87;73;
75946;PMS5003;64628;50.104;14.614;2024-01-30T00:18:47;93;73;
75946;PMS5003;64628;50.104;14.614;2024-01-30T00:21:13;97;75;
75946;PMS5003;64628;50.104;14.614;2024-01-30T00:23:38;81;63;
75946;PMS5003;64628;50.104;14.614;2024-01-30T00:26:04;86;65;
75946;PMS5003;64628;50.104;14.614;2024-01-30T00:28:30;76;60;
75946;PMS5003;64628;50.104;14.614;2024-01-30T00:30:55;78;64;
75946;PMS5003;64628;50.104;14.614;2024-01-30T00:33:20;93;72;
75946;PMS5003;64628;50.104;14.614;2024-01-30T00:35:45;88;66;
75946;PMS5003;64628;50.104;14.614;2024-01-30T00:38:11;124;102;
75946;PMS5003;64628;50.104;14.614;2024-01-30T00:40:36;97;82;
75946;PMS5003;64628;50.104;14.614;2024-01-30T00:43:02;123;99;
75946;PMS5003;64628;50.104;14.614;2024-01-30T00:45:27;94;84;
75946;PMS5003;64628;50.104;14.614;2024-01-30T00:47:52;115;99;
75946;PMS5003;64628;50.104;14.614;2024-01-30T00:50:18;121;97;
75946;PMS5003;64628;50.104;14.614;2024-01-30T00:52:44;96;82;
75946;PMS5003;64628;50.104;14.614;2024-01-30T00:55:09;109;90;
75946;PMS5003;64628;50.104;14.614;2024-01-30T00:57:35;118;102;
75946;PMS5003;64628;50.104;14.614;2024-01-30T01:00:01;84;76;
75946;PMS5003;64628;50.104;14.614;2024-01-30T01:02:26;87;75;
75946;PMS5003;64628;50.104;14.614;2024-01-30T01:04:51;99;87;
75946;PMS5003;64628;50.104;14.614;2024-01-30T01:07:16;108;85;
75946;PMS5003;64628;50.104;14.614;2024-01-30T01:09:41;109;88;
75946;PMS5003;64628;50.104;14.614;2024-01-30T01:12:07;121;102;
75946;PMS5003;64628;50.104;14.614;2024-01-30T01:14:33;99;85;
75946;PMS5003;64628;50.104;14.614;2024-01-30T01:16:59;109;94;
75946;PMS5003;64628;50.104;14.614;2024-01-30T01:19:24;88;70;
75946;PMS5003;64628;50.104;14.614;2024-01-30T01:21:49;87;66;
75946;PMS5003;64628;50.104;14.614;2024-01-30T01:24:14;88;70;
75946;PMS5003;64628;50.104;14.614;2024-01-30T01:26:40;84;67;
75946;PMS5003;64628;50.104;14.614;2024-01-30T01:29:06;70;55;
75946;PMS5003;64628;50.104;14.614;2024-01-30T01:31:31;82;72;
75946;PMS5003;64628;50.104;14.614;2024-01-30T01:33:57;85;66;
75946;PMS5003;64628;50.104;14.614;2024-01-30T01:36:23;88;69;
75946;PMS5003;64628;50.104;14.614;2024-01-30T01:38:48;85;63;
75946;PMS5003;64628;50.104;14.614;2024-01-30T01:41:13;90;63;
75946;PMS5003;64628;50.104;14.614;2024-01-30T01:43:39;70;54;
75946;PMS5003;64628;50.104;14.614;2024-01-30T01:46:04;73;58;
75946;PMS5003;64628;50.104;14.614;2024-01-30T01:48:30;69;57;
75946;PMS5003;64628;50.104;14.614;2024-01-30T01:50:55;78;63;
75946;PMS5003;64628;50.104;14.614;2024-01-30T01:53:21;87;69;
75946;PMS5003;64628;50.104;14.614;2024-01-30T01:55:46;76;60;
75946;PMS5003;64628;50.104;14.614;2024-01-30T01:58:12;76;58;
75946;PMS5003;64628;50.104;14.614;2024-01-30T02:00:37;73;61;
75946;PMS5003;64628;50.104;14.614;2024-01-30T02:03:03;91;63;
75946;PMS5003;64628;50.104;14.614;2024-01-30T02:05:28;81;58;
75946;PMS5003;64628;50.104;14.614;2024-01-30T02:07:54;84;63;
75946;PMS5003;64628;50.104;14.614;2024-01-30T02:10:19;79;61;
75946;PMS5003;64628;50.104;14.614;2024-01-30T02:12:45;78;61;
75946;PMS5003;64628;50.104;14.614;2024-01-30T02:15:13;97;64;
75946;PMS5003;64628;50.104;14.614;2024-01-30T02:17:36;75;54;
75946;PMS5003;64628;50.104;14.614;2024-01-30T02:20:02;79;64;
75946;PMS5003;64628;50.104;14.614;2024-01-30T02:22:28;82;66;
75946;PMS5003;64628;50.104;14.614;2024-01-30T02:24:53;79;63;
75946;PMS5003;64628;50.104;14.614;2024-01-30T02:27:18;82;63;
75946;PMS5003;64628;50.104;14.614;2024-01-30T02:29:44;87;55;
75946;PMS5003;64628;50.104;14.614;2024-01-30T02:32:09;78;61;
75946;PMS5003;64628;50.104;14.614;2024-01-30T02:34:35;66;63;
75946;PMS5003;64628;50.104;14.614;2024-01-30T02:37:00;67;52;
75946;PMS5003;64628;50.104;14.614;2024-01-30T02:39:26;81;60;
75946;PMS5003;64628;50.104;14.614;2024-01-30T02:41:52;75;60;
75946;PMS5003;64628;50.104;14.614;2024-01-30T02:44:17;61;51;
75946;PMS5003;64628;50.104;14.614;2024-01-30T02:46:43;75;63;
75946;PMS5003;64628;50.104;14.614;2024-01-30T02:49:08;85;75;
75946;PMS5003;64628;50.104;14.614;2024-01-30T02:51:33;97;64;
75946;PMS5003;64628;50.104;14.614;2024-01-30T02:53:59;81;60;
75946;PMS5003;64628;50.104;14.614;2024-01-30T02:56:24;69;54;
75946;PMS5003;64628;50.104;14.614;2024-01-30T02:58:49;73;58;
75946;PMS5003;64628;50.104;14.614;2024-01-30T03:01:14;93;67;
75946;PMS5003;64628;50.104;14.614;2024-01-30T03:03:40;82;63;
75946;PMS5003;64628;50.104;14.614;2024-01-30T03:06:05;82;69;
75946;PMS5003;64628;50.104;14.614;2024-01-30T03:08:31;78;66;
75946;PMS5003;64628;50.104;14.614;2024-01-30T03:10:56;73;66;
75946;PMS5003;64628;50.104;14.614;2024-01-30T03:13:22;85;67;
75946;PMS5003;64628;50.104;14.614;2024-01-30T03:15:48;64;54;
75946;PMS5003;64628;50.104;14.614;2024-01-30T03:18:13;88;64;
75946;PMS5003;64628;50.104;14.614;2024-01-30T03:20:39;67;61;
75946;PMS5003;64628;50.104;14.614;2024-01-30T03:23:04;73;60;
75946;PMS5003;64628;50.104;14.614;2024-01-30T03:25:30;76;55;
75946;PMS5003;64628;50.104;14.614;2024-01-30T03:27:55;75;64;
75946;PMS5003;64628;50.104;14.614;2024-01-30T03:30:21;78;64;
75946;PMS5003;64628;50.104;14.614;2024-01-30T03:32:47;64;58;
75946;PMS5003;64628;50.104;14.614;2024-01-30T03:35:12;63;54;
75946;PMS5003;64628;50.104;14.614;2024-01-30T03:37:37;78;55;
75946;PMS5003;64628;50.104;14.614;2024-01-30T03:40:03;73;58;
75946;PMS5003;64628;50.104;14.614;2024-01-30T03:42:28;70;55;
75946;PMS5003;64628;50.104;14.614;2024-01-30T03:44:54;63;52;
75946;PMS5003;64628;50.104;14.614;2024-01-30T03:47:19;70;58;
75946;PMS5003;64628;50.104;14.614;2024-01-30T03:49:45;66;54;
75946;PMS5003;64628;50.104;14.614;2024-01-30T03:52:11;70;54;
75946;PMS5003;64628;50.104;14.614;2024-01-30T03:54:36;67;51;
75946;PMS5003;64628;50.104;14.614;2024-01-30T03:57:01;72;57;
75946;PMS5003;64628;50.104;14.614;2024-01-30T03:59:27;64;58;
75946;PMS5003;64628;50.104;14.614;2024-01-30T04:01:53;78;58;
75946;PMS5003;64628;50.104;14.614;2024-01-30T04:04:18;57;54;
75946;PMS5003;64628;50.104;14.614;2024-01-30T04:06:43;76;58;
75946;PMS5003;64628;50.104;14.614;2024-01-30T04:09:09;73;54;
75946;PMS5003;64628;50.104;14.614;2024-01-30T04:11:34;79;55;
75946;PMS5003;64628;50.104;14.614;2024-01-30T04:14:00;72;58;
75946;PMS5003;64628;50.104;14.614;2024-01-30T04:16:25;75;57;
75946;PMS5003;64628;50.104;14.614;2024-01-30T04:18:51;63;49;
75946;PMS5003;64628;50.104;14.614;2024-01-30T04:21:17;96;76;
75946;PMS5003;64628;50.104;14.614;2024-01-30T04:23:43;72;54;
75946;PMS5003;64628;50.104;14.614;2024-01-30T04:26:08;78;64;
75946;PMS5003;64628;50.104;14.614;2024-01-30T04:28:33;81;60;
75946;PMS5003;64628;50.104;14.614;2024-01-30T04:30:59;90;69;
75946;PMS5003;64628;50.104;14.614;2024-01-30T04:33:25;79;63;
75946;PMS5003;64628;50.104;14.614;2024-01-30T04:35:50;87;58;
75946;PMS5003;64628;50.104;14.614;2024-01-30T04:38:15;64;52;
75946;PMS5003;64628;50.104;14.614;2024-01-30T04:40:41;78;57;
75946;PMS5003;64628;50.104;14.614;2024-01-30T04:43:06;79;61;
75946;PMS5003;64628;50.104;14.614;2024-01-30T04:45:31;75;54;
75946;PMS5003;64628;50.104;14.614;2024-01-30T04:47:56;70;52;
75946;PMS5003;64628;50.104;14.614;2024-01-30T04:50:22;88;60;
75946;PMS5003;64628;50.104;14.614;2024-01-30T04:52:47;82;61;
75946;PMS5003;64628;50.104;14.614;2024-01-30T04:55:13;78;60;
75946;PMS5003;64628;50.104;14.614;2024-01-30T04:57:39;63;49;
75946;PMS5003;64628;50.104;14.614;2024-01-30T05:00:04;78;60;
75946;PMS5003;64628;50.104;14.614;2024-01-30T05:02:29;70;57;
75946;PMS5003;64628;50.104;14.614;2024-01-30T05:04:55;72;52;
75946;PMS5003;64628;50.104;14.614;2024-01-30T05:07:20;81;52;
75946;PMS5003;64628;50.104;14.614;2024-01-30T05:09:46;81;64;
75946;PMS5003;64628;50.104;14.614;2024-01-30T05:12:11;82;67;
75946;PMS5003;64628;50.104;14.614;2024-01-30T05:14:37;87;63;
75946;PMS5003;64628;50.104;14.614;2024-01-30T05:17:03;73;61;
75946;PMS5003;64628;50.104;14.614;2024-01-30T05:19:28;67;49;
75946;PMS5003;64628;50.104;14.614;2024-01-30T05:21:53;67;58;
75946;PMS5003;64628;50.104;14.614;2024-01-30T05:24:19;67;55;
75946;PMS5003;64628;50.104;14.614;2024-01-30T05:26:44;72;57;
75946;PMS5003;64628;50.104;14.614;2024-01-30T05:29:09;63;58;
75946;PMS5003;64628;50.104;14.614;2024-01-30T05:31:35;81;61;
75946;PMS5003;64628;50.104;14.614;2024-01-30T05:34:00;67;55;
75946;PMS5003;64628;50.104;14.614;2024-01-30T05:36:26;79;58;
75946;PMS5003;64628;50.104;14.614;2024-01-30T05:38:52;82;67;
75946;PMS5003;64628;50.104;14.614;2024-01-30T05:41:17;85;67;
75946;PMS5003;64628;50.104;14.614;2024-01-30T05:43:43;82;61;
75946;PMS5003;64628;50.104;14.614;2024-01-30T05:46:08;85;67;
75946;PMS5003;64628;50.104;14.614;2024-01-30T05:48:34;87;64;
75946;PMS5003;64628;50.104;14.614;2024-01-30T05:50:59;79;61;
75946;PMS5003;64628;50.104;14.614;2024-01-30T05:53:24;93;73;
75946;PMS5003;64628;50.104;14.614;2024-01-30T05:55:50;78;63;
75946;PMS5003;64628;50.104;14.614;2024-01-30T05:58:15;90;66;
75946;PMS5003;64628;50.104;14.614;2024-01-30T06:00:41;63;52;
75946;PMS5003;64628;50.104;14.614;2024-01-30T06:03:07;81;66;
75946;PMS5003;64628;50.104;14.614;2024-01-30T06:05:32;94;63;
75946;PMS5003;64628;50.104;14.614;2024-01-30T06:07:57;73;66;
75946;PMS5003;64628;50.104;14.614;2024-01-30T06:10:23;78;61;
75946;PMS5003;64628;50.104;14.614;2024-01-30T06:12:48;96;72;
75946;PMS5003;64628;50.104;14.614;2024-01-30T06:15:13;79;60;
75946;PMS5003;64628;50.104;14.614;2024-01-30T06:17:39;70;58;
75946;PMS5003;64628;50.104;14.614;2024-01-30T06:20:05;90;67;
75946;PMS5003;64628;50.104;14.614;2024-01-30T06:22:30;94;69;
75946;PMS5003;64628;50.104;14.614;2024-01-30T06:24:55;78;67;
75946;PMS5003;64628;50.104;14.614;2024-01-30T06:27:20;69;60;
75946;PMS5003;64628;50.104;14.614;2024-01-30T06:29:45;63;58;
75946;PMS5003;64628;50.104;14.614;2024-01-30T06:32:10;82;60;
75946;PMS5003;64628;50.104;14.614;2024-01-30T06:34:36;85;64;
75946;PMS5003;64628;50.104;14.614;2024-01-30T06:37:01;85;63;
75946;PMS5003;64628;50.104;14.614;2024-01-30T06:39:27;85;66;
75946;PMS5003;64628;50.104;14.614;2024-01-30T06:41:52;97;72;
75946;PMS5003;64628;50.104;14.614;2024-01-30T06:44:17;76;60;
75946;PMS5003;64628;50.104;14.614;2024-01-30T06:46:42;70;57;
75946;PMS5003;64628;50.104;14.614;2024-01-30T06:49:08;87;63;
75946;PMS5003;64628;50.104;14.614;2024-01-30T06:51:33;84;64;
75946;PMS5003;64628;50.104;14.614;2024-01-30T06:53:58;93;66;
75946;PMS5003;64628;50.104;14.614;2024-01-30T06:56:24;79;70;
75946;PMS5003;64628;50.104;14.614;2024-01-30T06:58:49;88;63;
75946;PMS5003;64628;50.104;14.614;2024-01-30T07:01:15;88;73;
75946;PMS5003;64628;50.104;14.614;2024-01-30T07:03:40;100;72;
75946;PMS5003;64628;50.104;14.614;2024-01-30T07:06:06;81;70;
75946;PMS5003;64628;50.104;14.614;2024-01-30T07:08:31;94;75;
75946;PMS5003;64628;50.104;14.614;2024-01-30T07:10:56;94;70;
75946;PMS5003;64628;50.104;14.614;2024-01-30T07:13:22;78;64;
75946;PMS5003;64628;50.104;14.614;2024-01-30T07:15:47;78;66;
75946;PMS5003;64628;50.104;14.614;2024-01-30T07:18:13;84;58;
75946;PMS5003;64628;50.104;14.614;2024-01-30T07:20:37;87;61;
75946;PMS5003;64628;50.104;14.614;2024-01-30T07:23:03;75;64;
75946;PMS5003;64628;50.104;14.614;2024-01-30T07:25:28;87;69;
75946;PMS5003;64628;50.104;14.614;2024-01-30T07:27:53;90;67;
75946;PMS5003;64628;50.104;14.614;2024-01-30T07:30:19;81;66;
75946;PMS5003;64628;50.104;14.614;2024-01-30T07:32:45;69;57;
75946;PMS5003;64628;50.104;14.614;2024-01-30T07:35:10;76;60;
75946;PMS5003;64628;50.104;14.614;2024-01-30T07:37:35;69;57;
75946;PMS5003;64628;50.104;14.614;2024-01-30T07:40:01;85;70;
75946;PMS5003;64628;50.104;14.614;2024-01-30T07:42:26;76;66;
75946;PMS5003;64628;50.104;14.614;2024-01-30T07:44:52;72;63;
75946;PMS5003;64628;50.104;14.614;2024-01-30T07:47:17;73;63;
75946;PMS5003;64628;50.104;14.614;2024-01-30T07:49:42;88;66;
75946;PMS5003;64628;50.104;14.614;2024-01-30T07:52:08;88;70;
75946;PMS5003;64628;50.104;14.614;2024-01-30T07:54:34;88;61;
75946;PMS5003;64628;50.104;14.614;2024-01-30T07:57:00;90;62;
75946;PMS5003;64628;50.104;14.614;2024-01-30T07:59:24;87;72;
75946;PMS5003;64628;50.104;14.614;2024-01-30T08:01:50;92;68;
75946;PMS5003;64628;50.104;14.614;2024-01-30T08:04:15;84;68;
75946;PMS5003;64628;50.104;14.614;2024-01-30T08:06:40;74;66;
75946;PMS5003;64628;50.104;14.614;2024-01-30T08:09:06;87;62;
75946;PMS5003;64628;50.104;14.614;2024-01-30T08:11:32;91;66;
75946;PMS5003;64628;50.104;14.614;2024-01-30T08:13:57;87;69;
75946;PMS5003;64628;50.104;14.614;2024-01-30T08:16:23;93;68;
75946;PMS5003;64628;50.104;14.614;2024-01-30T08:18:49;86;68;
75946;PMS5003;64628;50.104;14.614;2024-01-30T08:21:14;96;68;
75946;PMS5003;64628;50.104;14.614;2024-01-30T08:23:39;85;69;
75946;PMS5003;64628;50.104;14.614;2024-01-30T08:26:05;90;71;
75946;PMS5003;64628;50.104;14.614;2024-01-30T08:28:30;81;71;
75946;PMS5003;64628;50.104;14.614;2024-01-30T08:30:56;78;59;
75946;PMS5003;64628;50.104;14.614;2024-01-30T08:33:21;81;59;
75946;PMS5003;64628;50.104;14.614;2024-01-30T08:35:47;88;74;
75946;PMS5003;64628;50.104;14.614;2024-01-30T08:38:13;84;68;
75946;PMS5003;64628;50.104;14.614;2024-01-30T08:40:38;96;77;
75946;PMS5003;64628;50.104;14.614;2024-01-30T08:43:03;94;73;
75946;PMS5003;64628;50.104;14.614;2024-01-30T08:45:29;98;74;
75946;PMS5003;64628;50.104;14.614;2024-01-30T08:47:54;93;71;
75946;PMS5003;64628;50.104;14.614;2024-01-30T08:50:20;77;60;
75946;PMS5003;64628;50.104;14.614;2024-01-30T08:52:45;87;72;
75946;PMS5003;64628;50.104;14.614;2024-01-30T08:55:11;97;78;
75946;PMS5003;64628;50.104;14.614;2024-01-30T08:57:36;91;73;
75946;PMS5003;64628;50.104;14.614;2024-01-30T09:00:01;90;71;
75946;PMS5003;64628;50.104;14.614;2024-01-30T09:02:26;89;71;
75946;PMS5003;64628;50.104;14.614;2024-01-30T09:04:51;87;71;
75946;PMS5003;64628;50.104;14.614;2024-01-30T09:07:16;114;90;
75946;PMS5003;64628;50.104;14.614;2024-01-30T09:09:42;125;91;
75946;PMS5003;64628;50.104;14.614;2024-01-30T09:12:08;109;86;
75946;PMS5003;64628;50.104;14.614;2024-01-30T09:14:33;101;75;
75946;PMS5003;64628;50.104;14.614;2024-01-30T09:16:58;115;85;
75946;PMS5003;64628;50.104;14.614;2024-01-30T09:19:24;81;70;
75946;PMS5003;64628;50.104;14.614;2024-01-30T09:21:49;99;73;
75946;PMS5003;64628;50.104;14.614;2024-01-30T09:24:14;82;70;
75946;PMS5003;64628;50.104;14.614;2024-01-30T09:26:40;109;77;
75946;PMS5003;64628;50.104;14.614;2024-01-30T09:29:05;112;82;
75946;PMS5003;64628;50.104;14.614;2024-01-30T09:31:31;87;67;
75946;PMS5003;64628;50.104;14.614;2024-01-30T09:33:57;98;71;
75946;PMS5003;64628;50.104;14.614;2024-01-30T09:36:22;91;75;
75946;PMS5003;64628;50.104;14.614;2024-01-30T09:38:47;119;81;
75946;PMS5003;64628;50.104;14.614;2024-01-30T09:41:12;120;85;
75946;PMS5003;64628;50.104;14.614;2024-01-30T09:43:38;102;82;
75946;PMS5003;64628;50.104;14.614;2024-01-30T09:46:04;110;89;
75946;PMS5003;64628;50.104;14.614;2024-01-30T09:48:29;149;121;
75946;PMS5003;64628;50.104;14.614;2024-01-30T09:50:55;163;121;
75946;PMS5003;64628;50.104;14.614;2024-01-30T09:53:20;139;104;
75946;PMS5003;64628;50.104;14.614;2024-01-30T09:55:45;181;151;
75946;PMS5003;64628;50.104;14.614;2024-01-30T09:58:11;131;116;
75946;PMS5003;64628;50.104;14.614;2024-01-30T10:00:36;114;90;
75946;PMS5003;64628;50.104;14.614;2024-01-30T10:03:03;113;91;
75946;PMS5003;64628;50.104;14.614;2024-01-30T10:05:28;114;88;
75946;PMS5003;64628;50.104;14.614;2024-01-30T10:07:53;94;78;
75946;PMS5003;64628;50.104;14.614;2024-01-30T10:10:19;84;75;
75946;PMS5003;64628;50.104;14.614;2024-01-30T10:12:44;81;68;
75946;PMS5003;64628;50.104;14.614;2024-01-30T10:15:10;98;78;
75946;PMS5003;64628;50.104;14.614;2024-01-30T10:17:37;108;88;
75946;PMS5003;64628;50.104;14.614;2024-01-30T10:20:03;89;75;
75946;PMS5003;64628;50.104;14.614;2024-01-30T10:22:25;86;70;
75946;PMS5003;64628;50.104;14.614;2024-01-30T10:24:51;107;84;
75946;PMS5003;64628;50.104;14.614;2024-01-30T10:27:17;93;73;
75946;PMS5003;64628;50.104;14.614;2024-01-30T10:29:42;91;77;
75946;PMS5003;64628;50.104;14.614;2024-01-30T10:32:07;101;78;
75946;PMS5003;64628;50.104;14.614;2024-01-30T10:34:33;109;80;
75946;PMS5003;64628;50.104;14.614;2024-01-30T10:36:59;98;79;
75946;PMS5003;64628;50.104;14.614;2024-01-30T10:39:24;121;104;
75946;PMS5003;64628;50.104;14.614;2024-01-30T10:41:50;110;89;
75946;PMS5003;64628;50.104;14.614;2024-01-30T10:44:16;104;86;
75946;PMS5003;64628;50.104;14.614;2024-01-30T10:46:41;110;85;
75946;PMS5003;64628;50.104;14.614;2024-01-30T10:49:05;105;82;
75946;PMS5003;64628;50.104;14.614;2024-01-30T10:51:31;123;92;
75946;PMS5003;64628;50.104;14.614;2024-01-30T10:53:57;99;87;
75946;PMS5003;64628;50.104;14.614;2024-01-30T10:56:22;128;89;
75946;PMS5003;64628;50.104;14.614;2024-01-30T10:58:47;111;87;
75946;PMS5003;64628;50.104;14.614;2024-01-30T11:01:12;105;92;
75946;PMS5003;64628;50.104;14.614;2024-01-30T11:03:38;103;81;
75946;PMS5003;64628;50.104;14.614;2024-01-30T11:06:03;101;79;
75946;PMS5003;64628;50.104;14.614;2024-01-30T11:08:32;106;85;
75946;PMS5003;64628;50.104;14.614;2024-01-30T11:10:55;101;79;
75946;PMS5003;64628;50.104;14.614;2024-01-30T11:13:20;106;87;
75946;PMS5003;64628;50.104;14.614;2024-01-30T11:15:47;99;82;
75946;PMS5003;64628;50.104;14.614;2024-01-30T11:18:10;102;76;
75946;PMS5003;64628;50.104;14.614;2024-01-30T11:20:36;105;86;
75946;PMS5003;64628;50.104;14.614;2024-01-30T11:23:01;91;77;
75946;PMS5003;64628;50.104;14.614;2024-01-30T11:25:27;111;88;
75946;PMS5003;64628;50.104;14.614;2024-01-30T11:27:53;96;81;
75946;PMS5003;64628;50.104;14.614;2024-01-30T11:30:22;123;108;
75946;PMS5003;64628;50.104;14.614;2024-01-30T11:32:44;100;77;
75946;PMS5003;64628;50.104;14.614;2024-01-30T11:35:10;106;81;
75946;PMS5003;64628;50.104;14.614;2024-01-30T11:37:36;84;66;
75946;PMS5003;64628;50.104;14.614;2024-01-30T11:40:01;94;83;
75946;PMS5003;64628;50.104;14.614;2024-01-30T11:42:26;113;100;
75946;PMS5003;64628;50.104;14.614;2024-01-30T11:44:52;151;131;
75946;PMS5003;64628;50.104;14.614;2024-01-30T11:47:18;152;131;
75946;PMS5003;64628;50.104;14.614;2024-01-30T11:49:43;136;108;
75946;PMS5003;64628;50.104;14.614;2024-01-30T11:52:09;90;75;
75946;PMS5003;64628;50.104;14.614;2024-01-30T11:54:34;114;89;
75946;PMS5003;64628;50.104;14.614;2024-01-30T11:56:59;98;76;
75946;PMS5003;64628;50.104;14.614;2024-01-30T11:59:25;101;74;
75946;PMS5003;64628;50.104;14.614;2024-01-30T12:01:51;93;77;
75946;PMS5003;64628;50.104;14.614;2024-01-30T12:04:16;83;75;
75946;PMS5003;64628;50.104;14.614;2024-01-30T12:06:42;95;68;
75946;PMS5003;64628;50.104;14.614;2024-01-30T12:09:07;92;75;
75946;PMS5003;64628;50.104;14.614;2024-01-30T12:11:33;89;74;
75946;PMS5003;64628;50.104;14.614;2024-01-30T12:13:58;107;88;
75946;PMS5003;64628;50.104;14.614;2024-01-30T12:16:23;89;66;
75946;PMS5003;64628;50.104;14.614;2024-01-30T12:18:48;92;75;
75946;PMS5003;64628;50.104;14.614;2024-01-30T12:21:16;98;80;
75946;PMS5003;64628;50.104;14.614;2024-01-30T12:23:39;100;76;
75946;PMS5003;64628;50.104;14.614;2024-01-30T12:26:05;85;71;
75946;PMS5003;64628;50.104;14.614;2024-01-30T12:28:30;107;85;
75946;PMS5003;64628;50.104;14.614;2024-01-30T12:30:55;105;87;
75946;PMS5003;64628;50.104;14.614;2024-01-30T12:33:21;99;80;
75946;PMS5003;64628;50.104;14.614;2024-01-30T12:35:47;106;85;
75946;PMS5003;64628;50.104;14.614;2024-01-30T12:38:12;108;84;
75946;PMS5003;64628;50.104;14.614;2024-01-30T12:40:37;106;89;
75946;PMS5003;64628;50.104;14.614;2024-01-30T12:43:03;105;84;
75946;PMS5003;64628;50.104;14.614;2024-01-30T12:45:28;97;73;
75946;PMS5003;64628;50.104;14.614;2024-01-30T12:47:53;107;86;
75946;PMS5003;64628;50.104;14.614;2024-01-30T12:50:19;88;71;
75946;PMS5003;64628;50.104;14.614;2024-01-30T12:52:45;89;73;
75946;PMS5003;64628;50.104;14.614;2024-01-30T12:55:10;110;84;
75946;PMS5003;64628;50.104;14.614;2024-01-30T12:57:35;102;81;
75946;PMS5003;64628;50.104;14.614;2024-01-30T13:00:00;88;71;
75946;PMS5003;64628;50.104;14.614;2024-01-30T13:02:25;85;74;
75946;PMS5003;64628;50.104;14.614;2024-01-30T13:04:51;112;87;
75946;PMS5003;64628;50.104;14.614;2024-01-30T13:07:16;83;74;
75946;PMS5003;64628;50.104;14.614;2024-01-30T13:09:42;78;68;
75946;PMS5003;64628;50.104;14.614;2024-01-30T13:12:07;337;312;
75946;PMS5003;64628;50.104;14.614;2024-01-30T13:14:33;202;187;
75946;PMS5003;64628;50.104;14.614;2024-01-30T13:16:58;206;186;
75946;PMS5003;64628;50.104;14.614;2024-01-30T13:19:23;198;164;
75946;PMS5003;64628;50.104;14.614;2024-01-30T13:21:49;181;163;
75946;PMS5003;64628;50.104;14.614;2024-01-30T13:24:14;263;249;
75946;PMS5003;64628;50.104;14.614;2024-01-30T13:26:39;225;214;
75946;PMS5003;64628;50.104;14.614;2024-01-30T13:29:05;195;169;
75946;PMS5003;64628;50.104;14.614;2024-01-30T13:31:30;186;160;
75946;PMS5003;64628;50.104;14.614;2024-01-30T13:33:55;275;248;
75946;PMS5003;64628;50.104;14.614;2024-01-30T13:36:21;294;279;
75946;PMS5003;64628;50.104;14.614;2024-01-30T13:38:47;203;182;
75946;PMS5003;64628;50.104;14.614;2024-01-30T13:41:12;221;198;
75946;PMS5003;64628;50.104;14.614;2024-01-30T13:43:37;195;185;
75946;PMS5003;64628;50.104;14.614;2024-01-30T13:46:03;226;206;
75946;PMS5003;64628;50.104;14.614;2024-01-30T13:48:29;282;275;
75946;PMS5003;64628;50.104;14.614;2024-01-30T13:50:54;334;311;
75946;PMS5003;64628;50.104;14.614;2024-01-30T13:53:19;278;264;
75946;PMS5003;64628;50.104;14.614;2024-01-30T13:55:45;200;176;
75946;PMS5003;64628;50.104;14.614;2024-01-30T13:58:10;176;157;
75946;PMS5003;64628;50.104;14.614;2024-01-30T14:00:36;180;165;
75946;PMS5003;64628;50.104;14.614;2024-01-30T14:03:01;199;183;
75946;PMS5003;64628;50.104;14.614;2024-01-30T14:05:27;202;181;
75946;PMS5003;64628;50.104;14.614;2024-01-30T14:07:52;178;170;
75946;PMS5003;64628;50.104;14.614;2024-01-30T14:10:18;230;190;
75946;PMS5003;64628;50.104;14.614;2024-01-30T14:12:43;113;95;
75946;PMS5003;64628;50.104;14.614;2024-01-30T14:15:09;100;84;
75946;PMS5003;64628;50.104;14.614;2024-01-30T14:17:34;82;73;
75946;PMS5003;64628;50.104;14.614;2024-01-30T14:20:00;88;74;
75946;PMS5003;64628;50.104;14.614;2024-01-30T14:22:25;91;74;
75946;PMS5003;64628;50.104;14.614;2024-01-30T14:24:51;103;91;
75946;PMS5003;64628;50.104;14.614;2024-01-30T14:27:17;113;100;
75946;PMS5003;64628;50.104;14.614;2024-01-30T14:29:42;111;88;
75946;PMS5003;64628;50.104;14.614;2024-01-30T14:32:07;141;116;
75946;PMS5003;64628;50.104;14.614;2024-01-30T14:34:33;169;153;
75946;PMS5003;64628;50.104;14.614;2024-01-30T14:39:23;107;99;
75946;PMS5003;64628;50.104;14.614;2024-01-30T14:41:49;101;87;
75946;PMS5003;64628;50.104;14.614;2024-01-30T14:44:14;86;78;
75946;PMS5003;64628;50.104;14.614;2024-01-30T14:46:40;82;76;
75946;PMS5003;64628;50.104;14.614;2024-01-30T14:49:06;124;103;
75946;PMS5003;64628;50.104;14.614;2024-01-30T14:51:31;118;103;
75946;PMS5003;64628;50.104;14.614;2024-01-30T14:54:01;208;191;
75946;PMS5003;64628;50.104;14.614;2024-01-30T14:56:22;187;162;
75946;PMS5003;64628;50.104;14.614;2024-01-30T14:58:47;192;176;
75946;PMS5003;64628;50.104;14.614;2024-01-30T15:01:12;202;193;
75946;PMS5003;64628;50.104;14.614;2024-01-30T15:03:37;195;173;
75946;PMS5003;64628;50.104;14.614;2024-01-30T15:06:03;173;157;
75946;PMS5003;64628;50.104;14.614;2024-01-30T15:08:28;183;166;
75946;PMS5003;64628;50.104;14.614;2024-01-30T15:10:53;220;200;
75946;PMS5003;64628;50.104;14.614;2024-01-30T15:13:19;191;165;
75946;PMS5003;64628;50.104;14.614;2024-01-30T15:15:44;179;169;
75946;PMS5003;64628;50.104;14.614;2024-01-30T15:18:10;179;160;
75946;PMS5003;64628;50.104;14.614;2024-01-30T15:20:35;202;189;
75946;PMS5003;64628;50.104;14.614;2024-01-30T15:23:00;192;171;
75946;PMS5003;64628;50.104;14.614;2024-01-30T15:25:26;294;273;
75946;PMS5003;64628;50.104;14.614;2024-01-30T15:27:51;212;198;
75946;PMS5003;64628;50.104;14.614;2024-01-30T15:30:17;174;161;
75946;PMS5003;64628;50.104;14.614;2024-01-30T15:32:43;100;81;
75946;PMS5003;64628;50.104;14.614;2024-01-30T15:35:08;102;84;
75946;PMS5003;64628;50.104;14.614;2024-01-30T15:37:33;87;65;
75946;PMS5003;64628;50.104;14.614;2024-01-30T15:39:59;86;70;
75946;PMS5003;64628;50.104;14.614;2024-01-30T15:42:24;86;65;
75946;PMS5003;64628;50.104;14.614;2024-01-30T15:44:49;89;71;